Aérodrome :
LOGIN :

S'inscrire | Disclaimer

   EN    FR    IT 

 










Légende :    VFR   VFR Marginal   IFR   IFR Intensif   IFR Très Intensif
Visi : 
Plafond : 
>= 8 km
>= 3000ft
5 à 8 km
1000 à 3000 ft
1500m à 5 km
500 à 1000 ft
800 à 1500m
200 à 500 ft
< 800m
< 200 ft
Symboles :   Orages  Brouillard  Fortes neiges  Fortes précipitations  Vent > 20 kt
SIGMETs :   Divers  Orages  Givrage  Turbulence  Onde Orograph.  Cendres Volcan.







- Altitude de l'aérodrome : 250 ft
- Code IATA : AGA


GMAD - Al Massira Int.

DERNIER METAR :
  • 261030Z 13009KT 090V170 8000 SCT026 SCT083 21/14 Q1007 NOSIG

METARs EXPIRÉS :
  • 261000Z 22004KT 060V180 6000 FEW026CB SCT083 SCT200 18/14 Q1007 NOSIG
  • 260930Z 29006KT 080V240 6000 SCT083 BKN200 FEW026CB 18/14 Q1007 NOSIG
  • 260900Z 29009KT 6000 SCT010 SCT100 BKN200 18/14 Q1008 NOSIG
  • 260830Z 27009KT 6000 SCT010 SCT100 BKN200 18/14 Q1007 NOSIG
  • 260800Z 28005KT 8000 NSC 16/15 Q1007 NOSIG

TAF TAF GMAD
Valide du 26 à 06h jusqu'au 27 à 12h UTC


260500Z 2606/2712 13004KT 8000 NSC
PROB40
TEMPO 2607/2612 4000 -RA BKN020
BECMG 2612/2614 27012KT CAVOK
Pas de NOTAMs connus pour ce terrain.
3 SIGMETs publiés pour la FIR Casablanca (GMMM) :
 
Turbulence forte
GMMM SIGMET T2 VALID 261030/261430 GMMC
GMMM CASABLANCA FIR SEV TURB FCST N OF LINE N3530 W00203 - N3511 W00 410 - N3534 W00622 SFC/FL050 STNR NC=
Turbulence forte
GMMM SIGMET T1 VALID 260630/261030 GMMC
GMMM CASABLANCA FIR SEV TURB FCST N OF LINE N3529 W00204 - N3521 W00 549 - N3548 W00633 SFC/FL050 STNR NC=
Orages noyés dans la masse
GMMM SIGMET 03 VALID 260900/261300 GMMC
GMMM CASABLANCA FIR EMBD TS OBS WI OF LINE N3537 W0933 - N3343 W0080 9 - N3151 W01302 - N3524 W01112 - N3537 W0933 TOP FL460 MOV N NC=



MET'MAP, la Météo Aéronautique d'un coup d'oeil ! - Copyright ORBIFLY Décembre 2007 - Disclaimer

ORBIFLY MET'MAP TEAM :

Programmation & Développement : Alexandra Zaïnal
Conception & Développement : Baudouin d'Aumeries
Co-Programmation & Développement : Marc-Olivier Méhu
Soutien technique & logistique : Manuel Goepfert

Contact : metmap@orbifly.com




SOURCES & CREDITS :

   NOAA